sensor_id;sensor_type;location;lat;lon;timestamp;temperature;humidity
68251;DHT22;55066;51.560;4.642;2022-12-10T00:00:53;-1.58;99.99
68251;DHT22;55066;51.560;4.642;2022-12-10T00:03:19;-1.54;99.99
68251;DHT22;55066;51.560;4.642;2022-12-10T00:05:44;-1.48;99.99
68251;DHT22;55066;51.560;4.642;2022-12-10T00:08:10;-1.50;99.99
68251;DHT22;55066;51.560;4.642;2022-12-10T00:10:39;-1.47;99.99
68251;DHT22;55066;51.560;4.642;2022-12-10T00:13:05;-1.40;99.99
68251;DHT22;55066;51.560;4.642;2022-12-10T00:15:30;-1.43;99.99
68251;DHT22;55066;51.560;4.642;2022-12-10T00:17:55;-1.33;99.99
68251;DHT22;55066;51.560;4.642;2022-12-10T00:20:21;-1.27;99.99
68251;DHT22;55066;51.560;4.642;2022-12-10T00:22:46;-1.32;99.99
68251;DHT22;55066;51.560;4.642;2022-12-10T00:25:12;-1.34;99.99
68251;DHT22;55066;51.560;4.642;2022-12-10T00:27:37;-1.32;99.99
68251;DHT22;55066;51.560;4.642;2022-12-10T00:30:03;-1.32;99.99
68251;DHT22;55066;51.560;4.642;2022-12-10T00:32:28;-1.29;99.99
68251;DHT22;55066;51.560;4.642;2022-12-10T00:34:54;-1.29;99.99
68251;DHT22;55066;51.560;4.642;2022-12-10T00:37:19;-1.27;99.99
68251;DHT22;55066;51.560;4.642;2022-12-10T00:39:44;-1.29;99.99
68251;DHT22;55066;51.560;4.642;2022-12-10T00:42:11;-1.30;99.99
68251;DHT22;55066;51.560;4.642;2022-12-10T00:44:36;-1.21;99.99
68251;DHT22;55066;51.560;4.642;2022-12-10T00:47:02;-1.26;99.99
68251;DHT22;55066;51.560;4.642;2022-12-10T00:49:28;-1.25;99.99
68251;DHT22;55066;51.560;4.642;2022-12-10T00:51:54;-1.33;99.99
68251;DHT22;55066;51.560;4.642;2022-12-10T00:54:19;-1.32;99.99
68251;DHT22;55066;51.560;4.642;2022-12-10T00:56:45;-1.25;99.99
68251;DHT22;55066;51.560;4.642;2022-12-10T00:59:10;-1.23;99.99
68251;DHT22;55066;51.560;4.642;2022-12-10T01:01:38;-1.25;99.99
68251;DHT22;55066;51.560;4.642;2022-12-10T01:04:09;-1.32;99.99
68251;DHT22;55066;51.560;4.642;2022-12-10T01:06:43;-1.30;99.99
68251;DHT22;55066;51.560;4.642;2022-12-10T01:09:11;-1.29;99.99
68251;DHT22;55066;51.560;4.642;2022-12-10T01:11:40;-1.29;99.99
68251;DHT22;55066;51.560;4.642;2022-12-10T01:14:08;-1.30;99.99
68251;DHT22;55066;51.560;4.642;2022-12-10T01:16:34;-1.34;99.99
68251;DHT22;55066;51.560;4.642;2022-12-10T01:19:00;-1.33;99.99
68251;DHT22;55066;51.560;4.642;2022-12-10T01:21:27;-1.33;99.99
68251;DHT22;55066;51.560;4.642;2022-12-10T01:23:53;-1.29;99.99
68251;DHT22;55066;51.560;4.642;2022-12-10T01:26:21;-1.26;99.99
68251;DHT22;55066;51.560;4.642;2022-12-10T01:28:47;-1.29;99.99
68251;DHT22;55066;51.560;4.642;2022-12-10T01:31:17;-1.29;99.99
68251;DHT22;55066;51.560;4.642;2022-12-10T01:33:44;-1.37;99.99
68251;DHT22;55066;51.560;4.642;2022-12-10T01:36:15;-1.36;99.99
68251;DHT22;55066;51.560;4.642;2022-12-10T01:38:42;-1.26;99.99
68251;DHT22;55066;51.560;4.642;2022-12-10T01:41:13;-1.26;99.99
68251;DHT22;55066;51.560;4.642;2022-12-10T01:46:21;-1.26;99.99
68251;DHT22;55066;51.560;4.642;2022-12-10T01:48:48;-1.32;99.99
68251;DHT22;55066;51.560;4.642;2022-12-10T01:51:15;-1.27;99.99
68251;DHT22;55066;51.560;4.642;2022-12-10T01:53:42;-1.34;99.99
68251;DHT22;55066;51.560;4.642;2022-12-10T01:56:10;-1.34;99.99
68251;DHT22;55066;51.560;4.642;2022-12-10T01:58:35;-1.29;99.99
68251;DHT22;55066;51.560;4.642;2022-12-10T02:01:07;-1.33;99.99
68251;DHT22;55066;51.560;4.642;2022-12-10T02:06:28;-1.32;99.99
68251;DHT22;55066;51.560;4.642;2022-12-10T02:14:27;-1.27;99.99
68251;DHT22;55066;51.560;4.642;2022-12-10T02:17:06;-1.26;99.99
68251;DHT22;55066;51.560;4.642;2022-12-10T02:22:22;-1.27;99.99
68251;DHT22;55066;51.560;4.642;2022-12-10T02:24:51;-1.29;99.99
68251;DHT22;55066;51.560;4.642;2022-12-10T02:27:33;-1.32;99.99
68251;DHT22;55066;51.560;4.642;2022-12-10T02:30:02;-1.30;99.99
68251;DHT22;55066;51.560;4.642;2022-12-10T02:32:38;-1.29;99.99
68251;DHT22;55066;51.560;4.642;2022-12-10T02:35:13;-1.29;99.99
68251;DHT22;55066;51.560;4.642;2022-12-10T02:38:01;-1.33;99.99
68251;DHT22;55066;51.560;4.642;2022-12-10T02:40:31;-1.27;99.99
68251;DHT22;55066;51.560;4.642;2022-12-10T02:43:00;-1.21;99.99
68251;DHT22;55066;51.560;4.642;2022-12-10T02:45:27;-1.33;99.99
68251;DHT22;55066;51.560;4.642;2022-12-10T02:47:56;-1.25;99.99
68251;DHT22;55066;51.560;4.642;2022-12-10T02:50:24;-1.27;99.99
68251;DHT22;55066;51.560;4.642;2022-12-10T02:52:50;-1.29;99.99
68251;DHT22;55066;51.560;4.642;2022-12-10T02:55:17;-1.25;99.99
68251;DHT22;55066;51.560;4.642;2022-12-10T03:00:33;-1.15;99.99
68251;DHT22;55066;51.560;4.642;2022-12-10T03:03:15;-1.17;99.99
68251;DHT22;55066;51.560;4.642;2022-12-10T03:09:03;-1.12;99.99
68251;DHT22;55066;51.560;4.642;2022-12-10T03:11:13;-1.21;99.99
68251;DHT22;55066;51.560;4.642;2022-12-10T03:13:46;-1.15;99.99
68251;DHT22;55066;51.560;4.642;2022-12-10T03:16:14;-1.17;99.99
68251;DHT22;55066;51.560;4.642;2022-12-10T03:18:41;-1.07;99.99
68251;DHT22;55066;51.560;4.642;2022-12-10T03:21:07;-1.02;99.99
68251;DHT22;55066;51.560;4.642;2022-12-10T03:23:37;-1.06;99.99
68251;DHT22;55066;51.560;4.642;2022-12-10T03:26:03;-1.17;99.99
68251;DHT22;55066;51.560;4.642;2022-12-10T03:28:32;-1.21;99.99
68251;DHT22;55066;51.560;4.642;2022-12-10T03:31:00;-1.19;99.99
68251;DHT22;55066;51.560;4.642;2022-12-10T03:33:27;-1.21;99.99
68251;DHT22;55066;51.560;4.642;2022-12-10T03:35:53;-1.27;99.99
68251;DHT22;55066;51.560;4.642;2022-12-10T03:38:18;-1.19;99.99
68251;DHT22;55066;51.560;4.642;2022-12-10T03:40:44;-1.15;99.99
68251;DHT22;55066;51.560;4.642;2022-12-10T03:43:12;-1.10;99.99
68251;DHT22;55066;51.560;4.642;2022-12-10T03:45:39;-1.06;99.99
68251;DHT22;55066;51.560;4.642;2022-12-10T03:48:04;-0.99;99.99
68251;DHT22;55066;51.560;4.642;2022-12-10T03:50:30;-1.02;99.99
68251;DHT22;55066;51.560;4.642;2022-12-10T03:52:55;-0.92;99.99
68251;DHT22;55066;51.560;4.642;2022-12-10T03:55:20;-0.95;99.99
68251;DHT22;55066;51.560;4.642;2022-12-10T03:57:46;-0.96;99.99
68251;DHT22;55066;51.560;4.642;2022-12-10T04:00:12;-1.07;99.99
68251;DHT22;55066;51.560;4.642;2022-12-10T04:02:38;-1.09;99.99
68251;DHT22;55066;51.560;4.642;2022-12-10T04:05:03;-1.12;99.99
68251;DHT22;55066;51.560;4.642;2022-12-10T04:07:30;-1.09;99.99
68251;DHT22;55066;51.560;4.642;2022-12-10T04:09:55;-1.15;99.99
68251;DHT22;55066;51.560;4.642;2022-12-10T04:12:21;-1.16;99.99
68251;DHT22;55066;51.560;4.642;2022-12-10T04:14:46;-1.13;99.99
68251;DHT22;55066;51.560;4.642;2022-12-10T04:17:33;-1.10;99.99
68251;DHT22;55066;51.560;4.642;2022-12-10T04:19:59;-1.16;99.99
68251;DHT22;55066;51.560;4.642;2022-12-10T04:22:24;-1.15;99.99
68251;DHT22;55066;51.560;4.642;2022-12-10T04:25:11;-1.12;99.99
68251;DHT22;55066;51.560;4.642;2022-12-10T04:27:56;-1.00;99.99
68251;DHT22;55066;51.560;4.642;2022-12-10T04:30:22;-1.00;99.99
68251;DHT22;55066;51.560;4.642;2022-12-10T04:32:47;-1.06;99.99
68251;DHT22;55066;51.560;4.642;2022-12-10T04:35:12;-1.02;99.99
68251;DHT22;55066;51.560;4.642;2022-12-10T04:37:38;-0.95;99.99
68251;DHT22;55066;51.560;4.642;2022-12-10T04:40:04;-0.91;99.99
68251;DHT22;55066;51.560;4.642;2022-12-10T04:42:30;-0.96;99.99
68251;DHT22;55066;51.560;4.642;2022-12-10T04:44:55;-0.93;99.99
68251;DHT22;55066;51.560;4.642;2022-12-10T04:47:21;-1.03;99.99
68251;DHT22;55066;51.560;4.642;2022-12-10T04:49:46;-1.09;99.99
68251;DHT22;55066;51.560;4.642;2022-12-10T04:52:14;-1.07;99.99
68251;DHT22;55066;51.560;4.642;2022-12-10T04:54:41;-1.05;99.99
68251;DHT22;55066;51.560;4.642;2022-12-10T04:57:07;-1.03;99.99
68251;DHT22;55066;51.560;4.642;2022-12-10T04:59:33;-1.06;99.99
68251;DHT22;55066;51.560;4.642;2022-12-10T05:01:58;-1.17;99.99
68251;DHT22;55066;51.560;4.642;2022-12-10T05:04:24;-1.23;99.99
68251;DHT22;55066;51.560;4.642;2022-12-10T05:06:49;-1.23;99.99
68251;DHT22;55066;51.560;4.642;2022-12-10T05:09:16;-1.23;99.99
68251;DHT22;55066;51.560;4.642;2022-12-10T05:11:42;-1.30;99.99
68251;DHT22;55066;51.560;4.642;2022-12-10T05:14:10;-1.29;99.99
68251;DHT22;55066;51.560;4.642;2022-12-10T05:16:36;-1.20;99.99
68251;DHT22;55066;51.560;4.642;2022-12-10T05:19:01;-1.23;99.99
68251;DHT22;55066;51.560;4.642;2022-12-10T05:21:28;-1.13;99.99
68251;DHT22;55066;51.560;4.642;2022-12-10T05:24:15;-1.03;99.99
68251;DHT22;55066;51.560;4.642;2022-12-10T05:26:41;-1.02;99.99
68251;DHT22;55066;51.560;4.642;2022-12-10T05:29:07;-1.05;99.99
68251;DHT22;55066;51.560;4.642;2022-12-10T05:31:33;-1.05;99.99
68251;DHT22;55066;51.560;4.642;2022-12-10T05:33:59;-1.03;99.99
68251;DHT22;55066;51.560;4.642;2022-12-10T05:36:27;-1.03;99.99
68251;DHT22;55066;51.560;4.642;2022-12-10T05:38:54;-0.99;99.99
68251;DHT22;55066;51.560;4.642;2022-12-10T05:41:28;-0.95;99.99
68251;DHT22;55066;51.560;4.642;2022-12-10T05:43:55;-1.02;99.99
68251;DHT22;55066;51.560;4.642;2022-12-10T05:46:24;-1.12;99.99
68251;DHT22;55066;51.560;4.642;2022-12-10T05:48:50;-1.06;99.99
68251;DHT22;55066;51.560;4.642;2022-12-10T05:51:21;-1.00;99.99
68251;DHT22;55066;51.560;4.642;2022-12-10T05:53:48;-0.99;99.99
68251;DHT22;55066;51.560;4.642;2022-12-10T05:56:15;-1.15;99.99
68251;DHT22;55066;51.560;4.642;2022-12-10T05:58:44;-1.15;99.99
68251;DHT22;55066;51.560;4.642;2022-12-10T06:01:15;-1.06;99.99
68251;DHT22;55066;51.560;4.642;2022-12-10T06:03:41;-1.07;99.99
68251;DHT22;55066;51.560;4.642;2022-12-10T06:06:07;-1.15;99.99
68251;DHT22;55066;51.560;4.642;2022-12-10T06:08:34;-1.03;99.99
68251;DHT22;55066;51.560;4.642;2022-12-10T06:11:04;-1.02;99.99
68251;DHT22;55066;51.560;4.642;2022-12-10T06:13:30;-1.05;99.99
68251;DHT22;55066;51.560;4.642;2022-12-10T06:15:55;-1.12;99.99
68251;DHT22;55066;51.560;4.642;2022-12-10T06:18:20;-1.12;99.99
68251;DHT22;55066;51.560;4.642;2022-12-10T06:20:46;-1.16;99.99
68251;DHT22;55066;51.560;4.642;2022-12-10T06:23:11;-1.10;99.99
68251;DHT22;55066;51.560;4.642;2022-12-10T06:25:38;-1.09;99.99
68251;DHT22;55066;51.560;4.642;2022-12-10T06:28:03;-1.13;99.99
68251;DHT22;55066;51.560;4.642;2022-12-10T06:30:29;-1.16;99.99
68251;DHT22;55066;51.560;4.642;2022-12-10T06:32:55;-1.13;99.99
68251;DHT22;55066;51.560;4.642;2022-12-10T06:35:20;-1.12;99.99
68251;DHT22;55066;51.560;4.642;2022-12-10T06:37:45;-1.16;99.99
68251;DHT22;55066;51.560;4.642;2022-12-10T06:40:11;-1.15;99.99
68251;DHT22;55066;51.560;4.642;2022-12-10T06:42:37;-1.16;99.99
68251;DHT22;55066;51.560;4.642;2022-12-10T06:45:02;-1.13;99.99
68251;DHT22;55066;51.560;4.642;2022-12-10T06:47:28;-1.13;99.99
68251;DHT22;55066;51.560;4.642;2022-12-10T06:49:53;-1.07;99.99
68251;DHT22;55066;51.560;4.642;2022-12-10T06:52:19;-1.10;99.99
68251;DHT22;55066;51.560;4.642;2022-12-10T06:54:44;-1.07;99.99
68251;DHT22;55066;51.560;4.642;2022-12-10T06:57:09;-1.16;99.99
68251;DHT22;55066;51.560;4.642;2022-12-10T06:59:35;-1.20;99.99
68251;DHT22;55066;51.560;4.642;2022-12-10T07:02:00;-1.25;99.99
68251;DHT22;55066;51.560;4.642;2022-12-10T07:04:27;-1.20;99.99
68251;DHT22;55066;51.560;4.642;2022-12-10T07:06:52;-1.15;99.99
68251;DHT22;55066;51.560;4.642;2022-12-10T07:09:17;-1.06;99.99
68251;DHT22;55066;51.560;4.642;2022-12-10T07:11:43;-1.20;99.99
68251;DHT22;55066;51.560;4.642;2022-12-10T07:14:16;-1.16;99.99
68251;DHT22;55066;51.560;4.642;2022-12-10T07:16:43;-1.10;99.99
68251;DHT22;55066;51.560;4.642;2022-12-10T07:19:11;-1.07;99.99
68251;DHT22;55066;51.560;4.642;2022-12-10T07:21:39;-1.07;99.99
68251;DHT22;55066;51.560;4.642;2022-12-10T07:24:10;-1.06;99.99
68251;DHT22;55066;51.560;4.642;2022-12-10T07:26:38;-1.03;99.99
68251;DHT22;55066;51.560;4.642;2022-12-10T07:29:06;-1.07;99.99
68251;DHT22;55066;51.560;4.642;2022-12-10T07:31:33;-1.10;99.99
68251;DHT22;55066;51.560;4.642;2022-12-10T07:33:59;-1.09;99.99
68251;DHT22;55066;51.560;4.642;2022-12-10T07:36:24;-1.12;99.99
68251;DHT22;55066;51.560;4.642;2022-12-10T07:38:51;-1.06;99.99
68251;DHT22;55066;51.560;4.642;2022-12-10T07:41:17;-1.09;99.99
68251;DHT22;55066;51.560;4.642;2022-12-10T07:43:44;-1.19;99.99
68251;DHT22;55066;51.560;4.642;2022-12-10T07:46:19;-1.26;99.99
68251;DHT22;55066;51.560;4.642;2022-12-10T07:48:46;-1.17;99.99
68251;DHT22;55066;51.560;4.642;2022-12-10T07:51:12;-1.16;99.99
68251;DHT22;55066;51.560;4.642;2022-12-10T07:53:38;-1.09;99.99
68251;DHT22;55066;51.560;4.642;2022-12-10T07:56:04;-1.09;99.99
68251;DHT22;55066;51.560;4.642;2022-12-10T07:58:30;-1.05;99.99
68251;DHT22;55066;51.560;4.642;2022-12-10T08:00:56;-1.02;99.99
68251;DHT22;55066;51.560;4.642;2022-12-10T08:03:21;-0.98;99.99
68251;DHT22;55066;51.560;4.642;2022-12-10T08:05:47;-0.96;99.99
68251;DHT22;55066;51.560;4.642;2022-12-10T08:08:13;-0.98;99.99
68251;DHT22;55066;51.560;4.642;2022-12-10T08:10:39;-0.93;99.99
68251;DHT22;55066;51.560;4.642;2022-12-10T08:13:06;-0.91;99.99
68251;DHT22;55066;51.560;4.642;2022-12-10T08:15:36;-0.98;99.99
68251;DHT22;55066;51.560;4.642;2022-12-10T08:18:02;-0.99;99.99
68251;DHT22;55066;51.560;4.642;2022-12-10T08:20:28;-1.00;99.99
68251;DHT22;55066;51.560;4.642;2022-12-10T08:22:53;-0.87;99.99
68251;DHT22;55066;51.560;4.642;2022-12-10T08:25:19;-0.85;99.99
68251;DHT22;55066;51.560;4.642;2022-12-10T08:27:44;-0.82;99.99
68251;DHT22;55066;51.560;4.642;2022-12-10T08:30:10;-0.82;99.99
68251;DHT22;55066;51.560;4.642;2022-12-10T08:32:36;-1.00;99.99
68251;DHT22;55066;51.560;4.642;2022-12-10T08:35:01;-1.06;99.99
68251;DHT22;55066;51.560;4.642;2022-12-10T08:37:27;-1.00;99.99
68251;DHT22;55066;51.560;4.642;2022-12-10T08:39:52;-0.91;99.99
68251;DHT22;55066;51.560;4.642;2022-12-10T08:42:17;-0.89;99.99
68251;DHT22;55066;51.560;4.642;2022-12-10T08:44:43;-0.95;99.99
68251;DHT22;55066;51.560;4.642;2022-12-10T08:47:08;-0.99;99.99
68251;DHT22;55066;51.560;4.642;2022-12-10T08:49:34;-0.95;99.99
68251;DHT22;55066;51.560;4.642;2022-12-10T08:51:59;-1.02;99.99
68251;DHT22;55066;51.560;4.642;2022-12-10T08:54:25;-1.10;99.99
68251;DHT22;55066;51.560;4.642;2022-12-10T08:56:51;-1.03;99.99
68251;DHT22;55066;51.560;4.642;2022-12-10T08:59:16;-0.92;99.99
68251;DHT22;55066;51.560;4.642;2022-12-10T09:01:42;-0.99;99.99
68251;DHT22;55066;51.560;4.642;2022-12-10T09:04:07;-0.98;99.99
68251;DHT22;55066;51.560;4.642;2022-12-10T09:06:33;-0.96;99.99
68251;DHT22;55066;51.560;4.642;2022-12-10T09:09:00;-0.88;99.99
68251;DHT22;55066;51.560;4.642;2022-12-10T09:11:29;-0.74;99.99
68251;DHT22;55066;51.560;4.642;2022-12-10T09:13:55;-0.99;99.99
68251;DHT22;55066;51.560;4.642;2022-12-10T09:16:28;-1.00;99.99
68251;DHT22;55066;51.560;4.642;2022-12-10T09:18:53;-0.84;99.99
68251;DHT22;55066;51.560;4.642;2022-12-10T09:21:19;-0.67;99.99
68251;DHT22;55066;51.560;4.642;2022-12-10T09:23:45;-0.67;99.99
68251;DHT22;55066;51.560;4.642;2022-12-10T09:26:15;-0.65;99.99
68251;DHT22;55066;51.560;4.642;2022-12-10T09:28:42;-0.71;99.99
68251;DHT22;55066;51.560;4.642;2022-12-10T09:31:08;-0.88;99.99
68251;DHT22;55066;51.560;4.642;2022-12-10T09:33:34;-0.99;99.99
68251;DHT22;55066;51.560;4.642;2022-12-10T09:36:04;-0.88;99.99
68251;DHT22;55066;51.560;4.642;2022-12-10T09:38:38;-0.69;99.99
68251;DHT22;55066;51.560;4.642;2022-12-10T09:46:23;-0.49;99.99
68251;DHT22;55066;51.560;4.642;2022-12-10T09:49:12;-0.75;99.99
68251;DHT22;55066;51.560;4.642;2022-12-10T09:51:39;-0.75;99.99
68251;DHT22;55066;51.560;4.642;2022-12-10T09:57:28;-0.44;99.99
68251;DHT22;55066;51.560;4.642;2022-12-10T09:59:54;-0.62;99.99
68251;DHT22;55066;51.560;4.642;2022-12-10T10:02:31;-0.77;99.99
68251;DHT22;55066;51.560;4.642;2022-12-10T10:05:11;-0.69;99.99
68251;DHT22;55066;51.560;4.642;2022-12-10T10:07:59;-0.61;99.99
68251;DHT22;55066;51.560;4.642;2022-12-10T10:10:27;-0.92;99.99
68251;DHT22;55066;51.560;4.642;2022-12-10T10:13:12;-0.82;99.99
68251;DHT22;55066;51.560;4.642;2022-12-10T10:15:43;-0.68;99.99
68251;DHT22;55066;51.560;4.642;2022-12-10T10:20:57;-0.61;99.99
68251;DHT22;55066;51.560;4.642;2022-12-10T10:23:22;-0.53;99.99
68251;DHT22;55066;51.560;4.642;2022-12-10T10:25:49;-0.57;99.99
68251;DHT22;55066;51.560;4.642;2022-12-10T10:28:20;-0.49;99.99
68251;DHT22;55066;51.560;4.642;2022-12-10T10:30:47;-0.34;99.99
68251;DHT22;55066;51.560;4.642;2022-12-10T10:33:15;-0.17;99.99
68251;DHT22;55066;51.560;4.642;2022-12-10T10:35:49;-0.29;99.99
68251;DHT22;55066;51.560;4.642;2022-12-10T10:38:22;-0.24;99.99
68251;DHT22;55066;51.560;4.642;2022-12-10T10:41:11;-0.17;99.99
68251;DHT22;55066;51.560;4.642;2022-12-10T10:43:43;-0.17;99.99
68251;DHT22;55066;51.560;4.642;2022-12-10T10:46:20;-0.14;99.99
68251;DHT22;55066;51.560;4.642;2022-12-10T10:48:48;-0.33;99.99
68251;DHT22;55066;51.560;4.642;2022-12-10T10:53:52;-0.34;99.99
68251;DHT22;55066;51.560;4.642;2022-12-10T10:56:23;-0.51;99.99
68251;DHT22;55066;51.560;4.642;2022-12-10T11:04:13;-0.22;99.99
68251;DHT22;55066;51.560;4.642;2022-12-10T11:06:40;-0.17;99.99
68251;DHT22;55066;51.560;4.642;2022-12-10T11:09:07;-0.17;99.99
68251;DHT22;55066;51.560;4.642;2022-12-10T11:11:39;-0.13;99.99
68251;DHT22;55066;51.560;4.642;2022-12-10T11:14:30;-0.05;99.99
68251;DHT22;55066;51.560;4.642;2022-12-10T11:20:00;0.04;99.99
68251;DHT22;55066;51.560;4.642;2022-12-10T11:22:33;0.18;99.99
68251;DHT22;55066;51.560;4.642;2022-12-10T11:24:59;0.15;99.99
68251;DHT22;55066;51.560;4.642;2022-12-10T11:30:17;0.05;99.99
68251;DHT22;55066;51.560;4.642;2022-12-10T11:38:23;0.19;99.99
68251;DHT22;55066;51.560;4.642;2022-12-10T11:43:49;-0.05;99.99
68251;DHT22;55066;51.560;4.642;2022-12-10T11:46:49;0.07;99.99
68251;DHT22;55066;51.560;4.642;2022-12-10T11:51:58;-0.01;99.99
68251;DHT22;55066;51.560;4.642;2022-12-10T11:57:40;0.33;99.99
68251;DHT22;55066;51.560;4.642;2022-12-10T12:00:20;0.29;99.99
68251;DHT22;55066;51.560;4.642;2022-12-10T12:05:52;0.29;99.99
68251;DHT22;55066;51.560;4.642;2022-12-10T12:11:12;0.26;99.99
68251;DHT22;55066;51.560;4.642;2022-12-10T12:13:57;0.39;99.99
68251;DHT22;55066;51.560;4.642;2022-12-10T12:16:33;0.46;99.99
68251;DHT22;55066;51.560;4.642;2022-12-10T12:19:11;0.49;99.99
68251;DHT22;55066;51.560;4.642;2022-12-10T12:21:38;0.45;99.99
68251;DHT22;55066;51.560;4.642;2022-12-10T12:24:33;0.46;99.99
68251;DHT22;55066;51.560;4.642;2022-12-10T12:27:03;0.45;99.99
68251;DHT22;55066;51.560;4.642;2022-12-10T12:29:46;0.46;99.99
68251;DHT22;55066;51.560;4.642;2022-12-10T12:32:22;0.45;99.99
68251;DHT22;55066;51.560;4.642;2022-12-10T12:34:50;0.48;99.99
68251;DHT22;55066;51.560;4.642;2022-12-10T12:37:18;0.59;99.99
68251;DHT22;55066;51.560;4.642;2022-12-10T12:43:07;0.52;99.99
68251;DHT22;55066;51.560;4.642;2022-12-10T12:45:39;0.41;99.99
68251;DHT22;55066;51.560;4.642;2022-12-10T12:48:19;0.24;99.99
68251;DHT22;55066;51.560;4.642;2022-12-10T12:50:54;0.42;99.99
68251;DHT22;55066;51.560;4.642;2022-12-10T12:53:21;0.43;99.99
68251;DHT22;55066;51.560;4.642;2022-12-10T12:59:11;0.49;99.99
68251;DHT22;55066;51.560;4.642;2022-12-10T13:01:54;0.59;99.99
68251;DHT22;55066;51.560;4.642;2022-12-10T13:04:22;0.48;99.99
68251;DHT22;55066;51.560;4.642;2022-12-10T13:09:50;0.53;99.99
68251;DHT22;55066;51.560;4.642;2022-12-10T13:12:31;0.45;99.99
68251;DHT22;55066;51.560;4.642;2022-12-10T13:28:28;0.56;99.99
68251;DHT22;55066;51.560;4.642;2022-12-10T13:45:25;0.36;99.99
68251;DHT22;55066;51.560;4.642;2022-12-10T14:05:11;0.48;99.99
68251;DHT22;55066;51.560;4.642;2022-12-10T14:07:56;0.49;99.99
68251;DHT22;55066;51.560;4.642;2022-12-10T14:10:35;0.48;99.99
68251;DHT22;55066;51.560;4.642;2022-12-10T14:13:06;0.49;99.99
68251;DHT22;55066;51.560;4.642;2022-12-10T14:15:35;0.49;99.99
68251;DHT22;55066;51.560;4.642;2022-12-10T14:18:11;0.43;99.99
68251;DHT22;55066;51.560;4.642;2022-12-10T14:20:45;0.56;99.99
68251;DHT22;55066;51.560;4.642;2022-12-10T14:23:29;0.57;99.99
68251;DHT22;55066;51.560;4.642;2022-12-10T14:26:07;0.63;99.99
68251;DHT22;55066;51.560;4.642;2022-12-10T14:28:39;0.71;99.99
68251;DHT22;55066;51.560;4.642;2022-12-10T14:31:07;0.74;99.99
68251;DHT22;55066;51.560;4.642;2022-12-10T14:33:35;0.73;99.99
68251;DHT22;55066;51.560;4.642;2022-12-10T14:36:01;0.73;99.99
68251;DHT22;55066;51.560;4.642;2022-12-10T14:38:30;0.71;99.99
68251;DHT22;55066;51.560;4.642;2022-12-10T14:40:57;0.70;99.99
68251;DHT22;55066;51.560;4.642;2022-12-10T14:43:31;0.62;99.99
68251;DHT22;55066;51.560;4.642;2022-12-10T14:46:00;0.66;99.99
68251;DHT22;55066;51.560;4.642;2022-12-10T14:48:26;0.67;99.99
68251;DHT22;55066;51.560;4.642;2022-12-10T14:50:52;0.66;99.99
68251;DHT22;55066;51.560;4.642;2022-12-10T14:53:22;0.73;99.99
68251;DHT22;55066;51.560;4.642;2022-12-10T14:55:50;0.70;99.99
68251;DHT22;55066;51.560;4.642;2022-12-10T14:58:25;0.67;99.99
68251;DHT22;55066;51.560;4.642;2022-12-10T15:00:52;0.70;99.99
68251;DHT22;55066;51.560;4.642;2022-12-10T15:03:26;0.71;99.99
68251;DHT22;55066;51.560;4.642;2022-12-10T15:06:01;0.70;99.99
68251;DHT22;55066;51.560;4.642;2022-12-10T15:08:28;0.67;99.99
68251;DHT22;55066;51.560;4.642;2022-12-10T15:10:58;0.63;99.99
68251;DHT22;55066;51.560;4.642;2022-12-10T15:13:40;0.63;99.99
68251;DHT22;55066;51.560;4.642;2022-12-10T15:16:16;0.63;99.99
68251;DHT22;55066;51.560;4.642;2022-12-10T15:18:41;0.63;99.99
68251;DHT22;55066;51.560;4.642;2022-12-10T15:21:21;0.66;99.99
68251;DHT22;55066;51.560;4.642;2022-12-10T15:23:47;0.63;99.99
68251;DHT22;55066;51.560;4.642;2022-12-10T15:26:23;0.60;99.99
68251;DHT22;55066;51.560;4.642;2022-12-10T15:32:13;0.57;99.99
68251;DHT22;55066;51.560;4.642;2022-12-10T15:35:10;0.64;99.99
68251;DHT22;55066;51.560;4.642;2022-12-10T15:37:39;0.67;99.99
68251;DHT22;55066;51.560;4.642;2022-12-10T15:40:26;0.67;99.99
68251;DHT22;55066;51.560;4.642;2022-12-10T15:46:18;0.67;99.99
68251;DHT22;55066;51.560;4.642;2022-12-10T15:48:47;0.69;99.99
68251;DHT22;55066;51.560;4.642;2022-12-10T15:51:14;0.64;99.99
68251;DHT22;55066;51.560;4.642;2022-12-10T15:53:39;0.64;99.99
68251;DHT22;55066;51.560;4.642;2022-12-10T15:56:05;0.66;99.99
68251;DHT22;55066;51.560;4.642;2022-12-10T15:58:30;0.67;99.99
68251;DHT22;55066;51.560;4.642;2022-12-10T16:00:56;0.66;99.99
68251;DHT22;55066;51.560;4.642;2022-12-10T16:03:23;0.63;99.99
68251;DHT22;55066;51.560;4.642;2022-12-10T16:05:53;0.66;99.99
68251;DHT22;55066;51.560;4.642;2022-12-10T16:08:25;0.66;99.99
68251;DHT22;55066;51.560;4.642;2022-12-10T16:10:53;0.63;99.99
68251;DHT22;55066;51.560;4.642;2022-12-10T16:13:24;0.63;99.99
68251;DHT22;55066;51.560;4.642;2022-12-10T16:15:52;0.62;99.99
68251;DHT22;55066;51.560;4.642;2022-12-10T16:18:18;0.64;99.99
68251;DHT22;55066;51.560;4.642;2022-12-10T16:20:44;0.62;99.99
68251;DHT22;55066;51.560;4.642;2022-12-10T16:23:10;0.60;99.99
68251;DHT22;55066;51.560;4.642;2022-12-10T16:25:37;0.59;99.99
68251;DHT22;55066;51.560;4.642;2022-12-10T16:28:08;0.62;99.99
68251;DHT22;55066;51.560;4.642;2022-12-10T16:30:42;0.63;99.99
68251;DHT22;55066;51.560;4.642;2022-12-10T16:33:08;0.59;99.99
68251;DHT22;55066;51.560;4.642;2022-12-10T16:35:34;0.62;99.99
68251;DHT22;55066;51.560;4.642;2022-12-10T16:38:01;0.64;99.99
68251;DHT22;55066;51.560;4.642;2022-12-10T16:40:27;0.63;99.99
68251;DHT22;55066;51.560;4.642;2022-12-10T16:42:54;0.66;99.99
68251;DHT22;55066;51.560;4.642;2022-12-10T16:45:28;0.66;99.99
68251;DHT22;55066;51.560;4.642;2022-12-10T16:47:54;0.63;99.99
68251;DHT22;55066;51.560;4.642;2022-12-10T16:50:22;0.66;99.99
68251;DHT22;55066;51.560;4.642;2022-12-10T16:52:48;0.69;99.99
68251;DHT22;55066;51.560;4.642;2022-12-10T16:55:17;0.70;99.99
68251;DHT22;55066;51.560;4.642;2022-12-10T16:57:44;0.67;99.99
68251;DHT22;55066;51.560;4.642;2022-12-10T17:00:12;0.69;99.99
68251;DHT22;55066;51.560;4.642;2022-12-10T17:02:38;0.70;99.99
68251;DHT22;55066;51.560;4.642;2022-12-10T17:05:24;0.70;99.99
68251;DHT22;55066;51.560;4.642;2022-12-10T17:07:51;0.73;99.99
68251;DHT22;55066;51.560;4.642;2022-12-10T17:10:16;0.71;99.99
68251;DHT22;55066;51.560;4.642;2022-12-10T17:12:42;0.74;99.99
68251;DHT22;55066;51.560;4.642;2022-12-10T17:15:12;0.77;99.99
68251;DHT22;55066;51.560;4.642;2022-12-10T17:17:39;0.79;99.99
68251;DHT22;55066;51.560;4.642;2022-12-10T17:20:31;0.84;99.99
68251;DHT22;55066;51.560;4.642;2022-12-10T17:22:56;0.83;99.99
68251;DHT22;55066;51.560;4.642;2022-12-10T17:25:22;0.83;99.99
68251;DHT22;55066;51.560;4.642;2022-12-10T17:27:47;0.83;99.99
68251;DHT22;55066;51.560;4.642;2022-12-10T17:30:14;0.84;99.99
68251;DHT22;55066;51.560;4.642;2022-12-10T17:32:40;0.85;99.99
68251;DHT22;55066;51.560;4.642;2022-12-10T17:35:05;0.84;99.99
68251;DHT22;55066;51.560;4.642;2022-12-10T17:37:34;0.84;99.99
68251;DHT22;55066;51.560;4.642;2022-12-10T17:40:12;0.84;99.99
68251;DHT22;55066;51.560;4.642;2022-12-10T17:42:39;0.81;99.99
68251;DHT22;55066;51.560;4.642;2022-12-10T17:45:17;0.84;99.99
68251;DHT22;55066;51.560;4.642;2022-12-10T17:47:44;0.83;99.99
68251;DHT22;55066;51.560;4.642;2022-12-10T17:50:27;0.83;99.99
68251;DHT22;55066;51.560;4.642;2022-12-10T17:52:55;0.84;99.99